sensor_id;sensor_type;location;lat;lon;timestamp;pressure;altitude;pressure_sealevel;temperature;humidity
79174;BME280;68599;49.142;9.124;2023-12-07T00:00:33;100118.13;;;3.66;76.27
79174;BME280;68599;49.142;9.124;2023-12-07T00:02:59;100119.54;;;3.65;76.27
79174;BME280;68599;49.142;9.124;2023-12-07T00:05:26;100123.11;;;3.66;76.36
79174;BME280;68599;49.142;9.124;2023-12-07T00:07:53;100122.63;;;3.70;76.14
79174;BME280;68599;49.142;9.124;2023-12-07T00:10:19;100121.20;;;3.69;75.98
79174;BME280;68599;49.142;9.124;2023-12-07T00:12:46;100121.90;;;3.67;76.07
79174;BME280;68599;49.142;9.124;2023-12-07T00:15:13;100124.66;;;3.64;76.01
79174;BME280;68599;49.142;9.124;2023-12-07T00:17:39;100120.02;;;3.62;76.08
79174;BME280;68599;49.142;9.124;2023-12-07T00:20:07;100123.57;;;3.62;76.03
79174;BME280;68599;49.142;9.124;2023-12-07T00:22:34;100122.81;;;3.60;76.06
79174;BME280;68599;49.142;9.124;2023-12-07T00:25:01;100123.14;;;3.58;76.38
79174;BME280;68599;49.142;9.124;2023-12-07T00:27:27;100128.06;;;3.55;76.33
79174;BME280;68599;49.142;9.124;2023-12-07T00:29:54;100126.59;;;3.52;76.23
79174;BME280;68599;49.142;9.124;2023-12-07T00:32:21;100130.02;;;3.54;76.17
79174;BME280;68599;49.142;9.124;2023-12-07T00:34:48;100131.64;;;3.54;76.16
79174;BME280;68599;49.142;9.124;2023-12-07T00:37:15;100129.08;;;3.52;76.28
79174;BME280;68599;49.142;9.124;2023-12-07T00:39:43;100136.34;;;3.49;76.29
79174;BME280;68599;49.142;9.124;2023-12-07T00:42:09;100136.99;;;3.47;76.49
79174;BME280;68599;49.142;9.124;2023-12-07T00:44:42;100135.73;;;3.46;76.58
79174;BME280;68599;49.142;9.124;2023-12-07T00:47:09;100139.21;;;3.50;76.36
79174;BME280;68599;49.142;9.124;2023-12-07T00:49:39;100139.29;;;3.55;76.25
79174;BME280;68599;49.142;9.124;2023-12-07T00:52:07;100138.67;;;3.60;76.21
79174;BME280;68599;49.142;9.124;2023-12-07T00:54:34;100140.50;;;3.63;76.07
79174;BME280;68599;49.142;9.124;2023-12-07T00:57:00;100139.63;;;3.64;75.97
79174;BME280;68599;49.142;9.124;2023-12-07T00:59:27;100141.94;;;3.63;75.96
79174;BME280;68599;49.142;9.124;2023-12-07T01:01:53;100146.38;;;3.61;76.15
79174;BME280;68599;49.142;9.124;2023-12-07T01:04:19;100148.88;;;3.62;76.10
79174;BME280;68599;49.142;9.124;2023-12-07T01:06:46;100145.85;;;3.62;75.84
79174;BME280;68599;49.142;9.124;2023-12-07T01:09:13;100147.63;;;3.62;75.90
79174;BME280;68599;49.142;9.124;2023-12-07T01:11:39;100156.88;;;3.61;75.97
79174;BME280;68599;49.142;9.124;2023-12-07T01:14:06;100161.81;;;3.59;75.97
79174;BME280;68599;49.142;9.124;2023-12-07T01:16:33;100165.75;;;3.59;75.95
79174;BME280;68599;49.142;9.124;2023-12-07T01:18:59;100167.87;;;3.58;75.85
79174;BME280;68599;49.142;9.124;2023-12-07T01:21:26;100168.39;;;3.57;75.89
79174;BME280;68599;49.142;9.124;2023-12-07T01:23:53;100169.99;;;3.58;75.87
79174;BME280;68599;49.142;9.124;2023-12-07T01:26:35;100167.77;;;3.52;75.98
79174;BME280;68599;49.142;9.124;2023-12-07T01:29:02;100176.42;;;3.50;76.01
79174;BME280;68599;49.142;9.124;2023-12-07T01:31:29;100174.59;;;3.47;75.95
79174;BME280;68599;49.142;9.124;2023-12-07T01:33:56;100175.64;;;3.46;75.99
79174;BME280;68599;49.142;9.124;2023-12-07T01:36:23;100175.61;;;3.44;75.99
79174;BME280;68599;49.142;9.124;2023-12-07T01:38:49;100176.97;;;3.41;75.83
79174;BME280;68599;49.142;9.124;2023-12-07T01:41:16;100175.66;;;3.38;75.87
79174;BME280;68599;49.142;9.124;2023-12-07T01:43:46;100180.95;;;3.36;75.54
79174;BME280;68599;49.142;9.124;2023-12-07T01:46:14;100177.06;;;3.28;75.51
79174;BME280;68599;49.142;9.124;2023-12-07T01:48:41;100173.52;;;3.20;75.51
79174;BME280;68599;49.142;9.124;2023-12-07T01:51:09;100177.15;;;3.07;75.59
79174;BME280;68599;49.142;9.124;2023-12-07T01:53:39;100177.36;;;2.92;75.79
79174;BME280;68599;49.142;9.124;2023-12-07T01:56:06;100180.91;;;2.84;75.78
79174;BME280;68599;49.142;9.124;2023-12-07T01:58:34;100183.67;;;2.80;75.55
79174;BME280;68599;49.142;9.124;2023-12-07T02:01:02;100180.53;;;2.75;75.66
79174;BME280;68599;49.142;9.124;2023-12-07T02:03:31;100183.13;;;2.71;75.52
79174;BME280;68599;49.142;9.124;2023-12-07T02:05:58;100188.45;;;2.63;75.60
79174;BME280;68599;49.142;9.124;2023-12-07T02:08:26;100192.14;;;2.54;75.64
79174;BME280;68599;49.142;9.124;2023-12-07T02:10:53;100192.23;;;2.42;75.82
79174;BME280;68599;49.142;9.124;2023-12-07T02:13:20;100193.80;;;2.34;75.75
79174;BME280;68599;49.142;9.124;2023-12-07T02:15:48;100196.27;;;2.26;75.95
79174;BME280;68599;49.142;9.124;2023-12-07T02:18:38;100199.70;;;2.22;76.01
79174;BME280;68599;49.142;9.124;2023-12-07T02:22:18;100196.09;;;2.20;76.03
79174;BME280;68599;49.142;9.124;2023-12-07T02:24:16;100191.39;;;2.16;75.81
79174;BME280;68599;49.142;9.124;2023-12-07T02:26:48;100189.00;;;2.14;75.91
79174;BME280;68599;49.142;9.124;2023-12-07T02:29:15;100186.41;;;2.09;75.77
79174;BME280;68599;49.142;9.124;2023-12-07T02:31:41;100187.73;;;1.98;76.16
79174;BME280;68599;49.142;9.124;2023-12-07T02:34:08;100185.23;;;1.91;76.00
79174;BME280;68599;49.142;9.124;2023-12-07T02:36:38;100191.51;;;1.87;76.05
79174;BME280;68599;49.142;9.124;2023-12-07T02:39:06;100194.26;;;1.83;76.03
79174;BME280;68599;49.142;9.124;2023-12-07T02:41:36;100189.60;;;1.75;76.22
79174;BME280;68599;49.142;9.124;2023-12-07T02:44:04;100191.92;;;1.62;76.76
79174;BME280;68599;49.142;9.124;2023-12-07T02:46:30;100193.66;;;1.61;76.65
79174;BME280;68599;49.142;9.124;2023-12-07T02:48:58;100189.44;;;1.56;76.67
79174;BME280;68599;49.142;9.124;2023-12-07T02:51:25;100191.70;;;1.54;76.59
79174;BME280;68599;49.142;9.124;2023-12-07T02:53:51;100191.48;;;1.53;76.53
79174;BME280;68599;49.142;9.124;2023-12-07T02:56:18;100190.29;;;1.48;76.66
79174;BME280;68599;49.142;9.124;2023-12-07T02:58:44;100191.07;;;1.45;76.97
79174;BME280;68599;49.142;9.124;2023-12-07T03:01:11;100191.64;;;1.39;76.99
79174;BME280;68599;49.142;9.124;2023-12-07T03:03:37;100192.34;;;1.33;77.36
79174;BME280;68599;49.142;9.124;2023-12-07T03:06:05;100194.05;;;1.25;77.49
79174;BME280;68599;49.142;9.124;2023-12-07T03:08:32;100194.54;;;1.17;77.66
79174;BME280;68599;49.142;9.124;2023-12-07T03:10:58;100196.80;;;1.16;77.38
79174;BME280;68599;49.142;9.124;2023-12-07T03:13:25;100199.88;;;1.17;77.22
79174;BME280;68599;49.142;9.124;2023-12-07T03:15:51;100200.41;;;1.17;77.20
79174;BME280;68599;49.142;9.124;2023-12-07T03:18:18;100198.43;;;1.16;76.99
79174;BME280;68599;49.142;9.124;2023-12-07T03:20:45;100194.09;;;1.02;78.75
79174;BME280;68599;49.142;9.124;2023-12-07T03:23:11;100197.73;;;0.93;78.51
79174;BME280;68599;49.142;9.124;2023-12-07T03:25:38;100204.29;;;0.93;77.96
79174;BME280;68599;49.142;9.124;2023-12-07T03:28:05;100200.21;;;0.93;77.86
79174;BME280;68599;49.142;9.124;2023-12-07T03:30:31;100202.83;;;0.92;78.16
79174;BME280;68599;49.142;9.124;2023-12-07T03:32:58;100204.54;;;0.96;77.78
79174;BME280;68599;49.142;9.124;2023-12-07T03:35:25;100209.29;;;0.94;77.88
79174;BME280;68599;49.142;9.124;2023-12-07T03:37:51;100213.67;;;0.87;78.07
79174;BME280;68599;49.142;9.124;2023-12-07T03:40:18;100210.23;;;0.84;78.15
79174;BME280;68599;49.142;9.124;2023-12-07T03:42:44;100213.03;;;0.77;78.27
79174;BME280;68599;49.142;9.124;2023-12-07T03:45:22;100215.04;;;0.79;77.99
79174;BME280;68599;49.142;9.124;2023-12-07T03:47:49;100219.17;;;0.80;77.85
79174;BME280;68599;49.142;9.124;2023-12-07T03:50:15;100216.91;;;0.82;78.01
79174;BME280;68599;49.142;9.124;2023-12-07T03:52:42;100218.73;;;0.78;78.27
79174;BME280;68599;49.142;9.124;2023-12-07T03:55:09;100225.80;;;0.72;78.55
79174;BME280;68599;49.142;9.124;2023-12-07T03:57:37;100227.08;;;0.73;78.08
79174;BME280;68599;49.142;9.124;2023-12-07T04:00:05;100229.11;;;0.75;77.82
79174;BME280;68599;49.142;9.124;2023-12-07T04:02:35;100234.95;;;0.75;77.61
79174;BME280;68599;49.142;9.124;2023-12-07T04:05:02;100233.48;;;0.73;77.65
79174;BME280;68599;49.142;9.124;2023-12-07T04:07:29;100234.42;;;0.75;77.49
79174;BME280;68599;49.142;9.124;2023-12-07T04:09:58;100237.63;;;0.75;77.49
79174;BME280;68599;49.142;9.124;2023-12-07T04:12:25;100235.79;;;0.73;77.67
79174;BME280;68599;49.142;9.124;2023-12-07T04:14:52;100235.96;;;0.67;78.00
79174;BME280;68599;49.142;9.124;2023-12-07T04:17:19;100234.39;;;0.63;77.86
79174;BME280;68599;49.142;9.124;2023-12-07T04:19:45;100233.50;;;0.57;78.20
79174;BME280;68599;49.142;9.124;2023-12-07T04:22:12;100234.34;;;0.45;79.33
79174;BME280;68599;49.142;9.124;2023-12-07T04:24:38;100238.30;;;0.46;78.28
79174;BME280;68599;49.142;9.124;2023-12-07T04:27:05;100237.41;;;0.47;78.13
79174;BME280;68599;49.142;9.124;2023-12-07T04:29:31;100235.36;;;0.49;77.99
79174;BME280;68599;49.142;9.124;2023-12-07T04:31:58;100237.19;;;0.51;77.99
79174;BME280;68599;49.142;9.124;2023-12-07T04:34:25;100243.62;;;0.53;77.97
79174;BME280;68599;49.142;9.124;2023-12-07T04:36:51;100243.29;;;0.53;77.83
79174;BME280;68599;49.142;9.124;2023-12-07T04:39:18;100242.46;;;0.55;77.85
79174;BME280;68599;49.142;9.124;2023-12-07T04:41:44;100246.85;;;0.59;77.85
79174;BME280;68599;49.142;9.124;2023-12-07T04:44:11;100248.48;;;0.60;77.83
79174;BME280;68599;49.142;9.124;2023-12-07T04:46:37;100249.20;;;0.60;77.66
79174;BME280;68599;49.142;9.124;2023-12-07T04:49:04;100251.52;;;0.50;78.31
79174;BME280;68599;49.142;9.124;2023-12-07T04:51:31;100250.87;;;0.41;78.18
79174;BME280;68599;49.142;9.124;2023-12-07T04:53:58;100252.20;;;0.43;78.08
79174;BME280;68599;49.142;9.124;2023-12-07T04:56:40;100253.41;;;0.48;78.21
79174;BME280;68599;49.142;9.124;2023-12-07T04:59:07;100255.05;;;0.55;77.96
79174;BME280;68599;49.142;9.124;2023-12-07T05:01:37;100253.61;;;0.59;77.83
79174;BME280;68599;49.142;9.124;2023-12-07T05:04:05;100254.46;;;0.53;79.13
79174;BME280;68599;49.142;9.124;2023-12-07T05:06:32;100253.16;;;0.51;79.08
79174;BME280;68599;49.142;9.124;2023-12-07T05:08:58;100255.81;;;0.56;78.62
79174;BME280;68599;49.142;9.124;2023-12-07T05:11:26;100255.39;;;0.65;78.24
79174;BME280;68599;49.142;9.124;2023-12-07T05:13:52;100252.47;;;0.73;78.25
79174;BME280;68599;49.142;9.124;2023-12-07T05:16:19;100256.36;;;0.73;78.62
79174;BME280;68599;49.142;9.124;2023-12-07T05:18:45;100257.60;;;0.73;78.36
79174;BME280;68599;49.142;9.124;2023-12-07T05:21:12;100259.62;;;0.75;78.22
79174;BME280;68599;49.142;9.124;2023-12-07T05:23:39;100255.52;;;0.79;78.25
79174;BME280;68599;49.142;9.124;2023-12-07T05:26:05;100260.02;;;0.88;78.10
79174;BME280;68599;49.142;9.124;2023-12-07T05:28:36;100260.42;;;0.95;78.02
79174;BME280;68599;49.142;9.124;2023-12-07T05:31:02;100262.55;;;1.01;77.73
79174;BME280;68599;49.142;9.124;2023-12-07T05:33:29;100260.30;;;1.02;77.74
79174;BME280;68599;49.142;9.124;2023-12-07T05:35:56;100262.41;;;1.02;77.54
79174;BME280;68599;49.142;9.124;2023-12-07T05:38:22;100265.66;;;1.04;77.64
79174;BME280;68599;49.142;9.124;2023-12-07T05:40:49;100268.35;;;1.05;77.78
79174;BME280;68599;49.142;9.124;2023-12-07T05:43:16;100269.61;;;1.06;77.57
79174;BME280;68599;49.142;9.124;2023-12-07T05:45:44;100266.28;;;1.07;77.35
79174;BME280;68599;49.142;9.124;2023-12-07T05:48:11;100266.54;;;1.03;77.44
79174;BME280;68599;49.142;9.124;2023-12-07T05:50:38;100265.77;;;1.01;77.28
79174;BME280;68599;49.142;9.124;2023-12-07T05:53:06;100265.95;;;0.91;77.70
79174;BME280;68599;49.142;9.124;2023-12-07T05:55:33;100267.11;;;0.76;78.26
79174;BME280;68599;49.142;9.124;2023-12-07T05:58:00;100270.73;;;0.73;78.05
79174;BME280;68599;49.142;9.124;2023-12-07T06:00:27;100265.42;;;0.68;77.67
79174;BME280;68599;49.142;9.124;2023-12-07T06:02:53;100270.39;;;0.62;77.98
79174;BME280;68599;49.142;9.124;2023-12-07T06:05:20;100275.25;;;0.60;78.24
79174;BME280;68599;49.142;9.124;2023-12-07T06:07:47;100276.95;;;0.57;78.41
79174;BME280;68599;49.142;9.124;2023-12-07T06:10:14;100280.84;;;0.57;78.69
79174;BME280;68599;49.142;9.124;2023-12-07T06:12:41;100281.68;;;0.61;78.27
79174;BME280;68599;49.142;9.124;2023-12-07T06:15:08;100284.57;;;0.62;78.97
79174;BME280;68599;49.142;9.124;2023-12-07T06:17:36;100287.23;;;0.62;79.04
79174;BME280;68599;49.142;9.124;2023-12-07T06:20:04;100284.50;;;0.60;78.92
79174;BME280;68599;49.142;9.124;2023-12-07T06:22:30;100283.11;;;0.56;79.39
79174;BME280;68599;49.142;9.124;2023-12-07T06:24:57;100282.52;;;0.60;78.63
79174;BME280;68599;49.142;9.124;2023-12-07T06:27:24;100280.55;;;0.59;78.91
79174;BME280;68599;49.142;9.124;2023-12-07T06:29:50;100282.92;;;0.56;78.98
79174;BME280;68599;49.142;9.124;2023-12-07T06:32:17;100279.44;;;0.52;79.02
79174;BME280;68599;49.142;9.124;2023-12-07T06:34:44;100274.42;;;0.51;79.44
79174;BME280;68599;49.142;9.124;2023-12-07T06:37:10;100270.63;;;0.49;79.00
79174;BME280;68599;49.142;9.124;2023-12-07T06:39:37;100274.98;;;0.51;78.44
79174;BME280;68599;49.142;9.124;2023-12-07T06:42:04;100275.48;;;0.51;78.42
79174;BME280;68599;49.142;9.124;2023-12-07T06:44:30;100273.98;;;0.53;79.45
79174;BME280;68599;49.142;9.124;2023-12-07T06:46:57;100271.48;;;0.53;79.96
79174;BME280;68599;49.142;9.124;2023-12-07T06:49:23;100271.77;;;0.46;81.63
79174;BME280;68599;49.142;9.124;2023-12-07T06:52:00;100279.99;;;0.48;80.03
79174;BME280;68599;49.142;9.124;2023-12-07T06:54:27;100277.48;;;0.52;79.15
79174;BME280;68599;49.142;9.124;2023-12-07T06:56:53;100282.48;;;0.53;79.30
79174;BME280;68599;49.142;9.124;2023-12-07T06:59:20;100286.16;;;0.57;79.08
79174;BME280;68599;49.142;9.124;2023-12-07T07:01:46;100287.56;;;0.62;78.84
79174;BME280;68599;49.142;9.124;2023-12-07T07:04:13;100281.40;;;0.63;78.47
79174;BME280;68599;49.142;9.124;2023-12-07T07:06:41;100284.23;;;0.58;78.09
79174;BME280;68599;49.142;9.124;2023-12-07T07:09:07;100287.96;;;0.58;78.24
79174;BME280;68599;49.142;9.124;2023-12-07T07:11:34;100291.85;;;0.62;78.10
79174;BME280;68599;49.142;9.124;2023-12-07T07:14:01;100295.21;;;0.62;77.97
79174;BME280;68599;49.142;9.124;2023-12-07T07:16:28;100292.60;;;0.64;78.00
79174;BME280;68599;49.142;9.124;2023-12-07T07:18:54;100293.59;;;0.67;77.93
79174;BME280;68599;49.142;9.124;2023-12-07T07:21:21;100291.40;;;0.65;77.95
79174;BME280;68599;49.142;9.124;2023-12-07T07:23:48;100295.92;;;0.63;78.00
79174;BME280;68599;49.142;9.124;2023-12-07T07:26:14;100293.29;;;0.58;78.21
79174;BME280;68599;49.142;9.124;2023-12-07T07:28:43;100292.35;;;0.56;78.52
79174;BME280;68599;49.142;9.124;2023-12-07T07:31:10;100294.49;;;0.57;78.56
79174;BME280;68599;49.142;9.124;2023-12-07T07:33:37;100289.38;;;0.53;78.62
79174;BME280;68599;49.142;9.124;2023-12-07T07:36:04;100291.57;;;0.55;78.73
79174;BME280;68599;49.142;9.124;2023-12-07T07:38:30;100286.90;;;0.59;78.48
79174;BME280;68599;49.142;9.124;2023-12-07T07:40:57;100289.06;;;0.60;78.53
79174;BME280;68599;49.142;9.124;2023-12-07T07:43:24;100295.59;;;0.63;78.42
79174;BME280;68599;49.142;9.124;2023-12-07T07:45:50;100300.31;;;0.72;78.37
79174;BME280;68599;49.142;9.124;2023-12-07T07:48:17;100304.45;;;0.85;78.14
79174;BME280;68599;49.142;9.124;2023-12-07T07:50:43;100300.70;;;1.01;78.03
79174;BME280;68599;49.142;9.124;2023-12-07T07:53:11;100302.42;;;1.11;77.68
79174;BME280;68599;49.142;9.124;2023-12-07T07:55:37;100307.58;;;1.34;77.36
79174;BME280;68599;49.142;9.124;2023-12-07T07:58:04;100310.46;;;1.58;76.70
79174;BME280;68599;49.142;9.124;2023-12-07T08:00:31;100308.66;;;1.89;76.01
79174;BME280;68599;49.142;9.124;2023-12-07T08:02:59;100304.86;;;2.18;74.52
79174;BME280;68599;49.142;9.124;2023-12-07T08:05:26;100307.46;;;2.42;72.96
79174;BME280;68599;49.142;9.124;2023-12-07T08:07:52;100306.48;;;2.66;72.80
79174;BME280;68599;49.142;9.124;2023-12-07T08:10:19;100309.68;;;2.80;72.39
79174;BME280;68599;49.142;9.124;2023-12-07T08:12:47;100321.03;;;3.01;71.61
79174;BME280;68599;49.142;9.124;2023-12-07T08:15:13;100318.23;;;3.32;70.53
79174;BME280;68599;49.142;9.124;2023-12-07T08:17:40;100310.83;;;3.86;71.77
79174;BME280;68599;49.142;9.124;2023-12-07T08:20:09;100302.41;;;4.50;70.54
79174;BME280;68599;49.142;9.124;2023-12-07T08:22:45;100294.57;;;5.40;65.33
79174;BME280;68599;49.142;9.124;2023-12-07T08:25:11;100289.58;;;6.42;61.63
79174;BME280;68599;49.142;9.124;2023-12-07T08:27:38;100286.64;;;7.47;60.43
79174;BME280;68599;49.142;9.124;2023-12-07T08:30:06;100284.52;;;8.54;56.60
79174;BME280;68599;49.142;9.124;2023-12-07T08:32:36;100279.84;;;9.91;58.93
79174;BME280;68599;49.142;9.124;2023-12-07T08:35:04;100277.95;;;11.17;59.37
79174;BME280;68599;49.142;9.124;2023-12-07T08:37:32;100273.15;;;12.23;48.70
79174;BME280;68599;49.142;9.124;2023-12-07T08:39:59;100262.32;;;13.04;42.51
79174;BME280;68599;49.142;9.124;2023-12-07T08:42:26;100255.34;;;14.21;41.70
79174;BME280;68599;49.142;9.124;2023-12-07T08:44:53;100249.30;;;15.15;39.77
79174;BME280;68599;49.142;9.124;2023-12-07T08:47:20;100245.98;;;15.37;36.77
79174;BME280;68599;49.142;9.124;2023-12-07T08:49:48;100248.70;;;15.16;36.49
79174;BME280;68599;49.142;9.124;2023-12-07T08:52:15;100244.26;;;15.20;36.26
79174;BME280;68599;49.142;9.124;2023-12-07T08:55:00;100243.04;;;15.18;36.05
79174;BME280;68599;49.142;9.124;2023-12-07T08:57:27;100240.30;;;15.66;36.09
79174;BME280;68599;49.142;9.124;2023-12-07T08:59:53;100238.13;;;15.73;35.44
79174;BME280;68599;49.142;9.124;2023-12-07T09:02:21;100230.63;;;15.74;35.34
79174;BME280;68599;49.142;9.124;2023-12-07T09:05:07;100225.11;;;15.82;34.98
79174;BME280;68599;49.142;9.124;2023-12-07T09:07:35;100222.11;;;16.22;35.09
79174;BME280;68599;49.142;9.124;2023-12-07T09:10:02;100214.89;;;16.67;33.71
79174;BME280;68599;49.142;9.124;2023-12-07T09:12:29;100213.66;;;17.39;33.36
79174;BME280;68599;49.142;9.124;2023-12-07T09:15:04;100212.41;;;17.13;32.54
79174;BME280;68599;49.142;9.124;2023-12-07T09:17:34;100205.11;;;17.24;32.46
79174;BME280;68599;49.142;9.124;2023-12-07T09:20:01;100202.41;;;17.93;32.26
79174;BME280;68599;49.142;9.124;2023-12-07T09:22:28;100203.30;;;18.98;30.39
79174;BME280;68599;49.142;9.124;2023-12-07T09:25:04;100205.48;;;19.65;28.34
79174;BME280;68599;49.142;9.124;2023-12-07T09:27:31;100211.79;;;19.87;28.29
79174;BME280;68599;49.142;9.124;2023-12-07T09:30:00;100196.98;;;20.92;29.81
79174;BME280;68599;49.142;9.124;2023-12-07T09:32:27;100194.82;;;21.93;26.34
79174;BME280;68599;49.142;9.124;2023-12-07T09:35:04;100194.67;;;22.19;27.75
79174;BME280;68599;49.142;9.124;2023-12-07T09:37:31;100185.58;;;23.67;27.76
79174;BME280;68599;49.142;9.124;2023-12-07T09:39:57;100185.89;;;23.94;25.39
79174;BME280;68599;49.142;9.124;2023-12-07T09:42:24;100181.52;;;23.82;24.58
79174;BME280;68599;49.142;9.124;2023-12-07T09:45:02;100185.64;;;24.15;24.25
79174;BME280;68599;49.142;9.124;2023-12-07T09:47:30;100184.38;;;23.05;23.58
79174;BME280;68599;49.142;9.124;2023-12-07T09:50:05;100177.63;;;23.10;24.03
79174;BME280;68599;49.142;9.124;2023-12-07T09:52:32;100179.66;;;24.22;23.43
79174;BME280;68599;49.142;9.124;2023-12-07T09:54:59;100179.92;;;25.87;24.09
79174;BME280;68599;49.142;9.124;2023-12-07T09:57:27;100170.41;;;26.85;22.94
79174;BME280;68599;49.142;9.124;2023-12-07T09:59:57;100164.17;;;26.87;20.79
79174;BME280;68599;49.142;9.124;2023-12-07T10:02:24;100159.28;;;26.49;19.97
79174;BME280;68599;49.142;9.124;2023-12-07T10:05:05;100155.44;;;26.48;19.53
79174;BME280;68599;49.142;9.124;2023-12-07T10:07:33;100150.22;;;26.69;18.50
79174;BME280;68599;49.142;9.124;2023-12-07T10:10:02;100156.88;;;26.44;18.72
79174;BME280;68599;49.142;9.124;2023-12-07T10:12:30;100155.17;;;27.21;20.43
79174;BME280;68599;49.142;9.124;2023-12-07T10:15:13;100147.46;;;27.11;19.14
79174;BME280;68599;49.142;9.124;2023-12-07T10:17:48;100143.88;;;26.16;20.19
79174;BME280;68599;49.142;9.124;2023-12-07T10:20:17;100135.52;;;27.20;19.78
79174;BME280;68599;49.142;9.124;2023-12-07T10:22:45;100135.16;;;27.94;19.06
79174;BME280;68599;49.142;9.124;2023-12-07T10:25:12;100128.13;;;27.31;19.02
79174;BME280;68599;49.142;9.124;2023-12-07T10:27:42;100125.45;;;26.49;19.66
79174;BME280;68599;49.142;9.124;2023-12-07T10:30:12;100130.10;;;26.46;19.72
79174;BME280;68599;49.142;9.124;2023-12-07T10:32:39;100127.05;;;26.45;19.70
79174;BME280;68599;49.142;9.124;2023-12-07T10:35:08;100124.90;;;27.21;20.21
79174;BME280;68599;49.142;9.124;2023-12-07T10:37:36;100126.67;;;26.57;19.57
79174;BME280;68599;49.142;9.124;2023-12-07T10:40:04;100119.46;;;26.86;19.60
79174;BME280;68599;49.142;9.124;2023-12-07T10:42:33;100114.43;;;27.46;19.67
79174;BME280;68599;49.142;9.124;2023-12-07T10:45:06;100112.63;;;27.59;19.64
79174;BME280;68599;49.142;9.124;2023-12-07T10:47:36;100106.01;;;28.33;19.29
79174;BME280;68599;49.142;9.124;2023-12-07T10:50:08;100110.54;;;27.55;18.33
79174;BME280;68599;49.142;9.124;2023-12-07T10:52:45;100111.56;;;27.46;19.45
79174;BME280;68599;49.142;9.124;2023-12-07T10:55:20;100110.31;;;26.41;19.13
79174;BME280;68599;49.142;9.124;2023-12-07T10:57:47;100104.98;;;27.13;18.91
79174;BME280;68599;49.142;9.124;2023-12-07T11:00:15;100104.51;;;26.17;20.03
79174;BME280;68599;49.142;9.124;2023-12-07T11:02:42;100103.68;;;25.18;20.04
79174;BME280;68599;49.142;9.124;2023-12-07T11:05:10;100098.41;;;24.94;20.66
79174;BME280;68599;49.142;9.124;2023-12-07T11:07:52;100095.91;;;25.11;20.76
79174;BME280;68599;49.142;9.124;2023-12-07T11:10:36;100087.20;;;25.74;19.90
79174;BME280;68599;49.142;9.124;2023-12-07T11:13:18;100075.40;;;25.99;19.95
79174;BME280;68599;49.142;9.124;2023-12-07T11:15:46;100070.48;;;25.98;20.04
79174;BME280;68599;49.142;9.124;2023-12-07T11:18:13;100061.54;;;26.07;19.53
79174;BME280;68599;49.142;9.124;2023-12-07T11:20:46;100055.39;;;26.88;19.37
79174;BME280;68599;49.142;9.124;2023-12-07T11:23:17;100043.20;;;26.80;19.16
79174;BME280;68599;49.142;9.124;2023-12-07T11:25:48;100036.55;;;26.10;19.06
79174;BME280;68599;49.142;9.124;2023-12-07T11:28:15;100038.64;;;26.63;19.46
79174;BME280;68599;49.142;9.124;2023-12-07T11:30:45;100035.58;;;25.68;19.77
79174;BME280;68599;49.142;9.124;2023-12-07T11:33:15;100029.69;;;25.88;19.19
79174;BME280;68599;49.142;9.124;2023-12-07T11:36:04;100033.61;;;24.92;20.00
79174;BME280;68599;49.142;9.124;2023-12-07T11:38:31;100027.57;;;25.76;20.51
79174;BME280;68599;49.142;9.124;2023-12-07T11:40:59;100025.30;;;25.59;19.77
79174;BME280;68599;49.142;9.124;2023-12-07T11:45:59;100006.17;;;23.97;20.96
79174;BME280;68599;49.142;9.124;2023-12-07T11:48:26;100008.71;;;23.47;22.33
79174;BME280;68599;49.142;9.124;2023-12-07T11:53:23;100002.89;;;25.13;21.22
79174;BME280;68599;49.142;9.124;2023-12-07T11:55:53;99992.50;;;24.25;21.63
79174;BME280;68599;49.142;9.124;2023-12-07T11:58:20;99986.52;;;25.14;20.97
79174;BME280;68599;49.142;9.124;2023-12-07T12:00:47;99986.28;;;24.47;20.86
79174;BME280;68599;49.142;9.124;2023-12-07T12:03:14;99984.13;;;24.46;21.56
79174;BME280;68599;49.142;9.124;2023-12-07T12:05:41;99976.37;;;23.94;21.63
79174;BME280;68599;49.142;9.124;2023-12-07T12:08:10;99972.09;;;23.70;22.27
79174;BME280;68599;49.142;9.124;2023-12-07T12:10:40;99967.70;;;23.76;22.25
79174;BME280;68599;49.142;9.124;2023-12-07T12:13:09;99967.66;;;24.01;22.36
79174;BME280;68599;49.142;9.124;2023-12-07T12:15:37;99959.48;;;24.56;22.00
79174;BME280;68599;49.142;9.124;2023-12-07T12:18:04;99951.72;;;24.40;21.56
79174;BME280;68599;49.142;9.124;2023-12-07T12:20:31;99948.73;;;24.67;21.60
79174;BME280;68599;49.142;9.124;2023-12-07T12:22:59;99943.42;;;24.35;21.51
79174;BME280;68599;49.142;9.124;2023-12-07T12:25:28;99938.24;;;23.22;22.89
79174;BME280;68599;49.142;9.124;2023-12-07T12:27:58;99934.64;;;24.10;22.34
79174;BME280;68599;49.142;9.124;2023-12-07T12:30:30;99932.20;;;23.89;22.16
79174;BME280;68599;49.142;9.124;2023-12-07T12:32:58;99930.02;;;23.80;22.50
79174;BME280;68599;49.142;9.124;2023-12-07T12:35:26;99924.31;;;24.45;21.77
79174;BME280;68599;49.142;9.124;2023-12-07T12:37:54;99922.78;;;24.00;22.39
79174;BME280;68599;49.142;9.124;2023-12-07T12:40:27;99918.25;;;24.34;21.89
79174;BME280;68599;49.142;9.124;2023-12-07T12:42:55;99914.52;;;24.05;21.89
79174;BME280;68599;49.142;9.124;2023-12-07T12:45:23;99907.47;;;23.98;22.22
79174;BME280;68599;49.142;9.124;2023-12-07T12:47:50;99902.52;;;23.76;22.47
79174;BME280;68599;49.142;9.124;2023-12-07T12:50:37;99895.14;;;23.73;22.64
79174;BME280;68599;49.142;9.124;2023-12-07T12:53:09;99885.40;;;23.24;23.24
79174;BME280;68599;49.142;9.124;2023-12-07T12:55:40;99887.03;;;21.81;24.22
79174;BME280;68599;49.142;9.124;2023-12-07T12:58:09;99886.85;;;21.44;24.97
79174;BME280;68599;49.142;9.124;2023-12-07T13:00:40;99885.86;;;21.39;25.37
79174;BME280;68599;49.142;9.124;2023-12-07T13:03:08;99888.55;;;21.18;25.75
79174;BME280;68599;49.142;9.124;2023-12-07T13:05:34;99887.70;;;20.80;26.02
79174;BME280;68599;49.142;9.124;2023-12-07T13:08:01;99883.36;;;21.18;26.01